Time;durP1;ratioP1;P1;durP2;ratioP2;P2;SDS_P1;SDS_P2;PMS_P1;PMS_P2;Temp;Humidity;BMP_temperature;BMP_pressure;BME280_temperature;BME280_humidity;BME280_pressure;Samples;Min_cycle;Max_cycle;Signal;HPM_P1;HPM_P2
2023/03/04 00:01:42;;;;;;;;;23.00;20.00;;;;;;;;117933;1177;25565;-67
2023/03/04 00:04:11;;;;;;;;;19.33;17.33;;;;;;;;117899;1191;24808;-66
2023/03/04 00:06:39;;;;;;;;;23.33;19.33;;;;;;;;117931;1191;25091;-68
2023/03/04 00:09:08;;;;;;;;;20.00;18.00;;;;;;;;117895;1179;24924;-67
2023/03/04 00:11:36;;;;;;;;;26.00;20.67;;;;;;;;117937;1179;25442;-68
2023/03/04 00:14:05;;;;;;;;;18.33;11.33;;;;;;;;117947;1179;25095;-66
2023/03/04 00:16:33;;;;;;;;;24.50;19.00;;;;;;;;117938;1178;25356;-67
2023/03/04 00:19:02;;;;;;;;;20.00;20.00;;;;;;;;117960;1177;24957;-67
2023/03/04 00:21:30;;;;;;;;;28.00;20.67;;;;;;;;117923;1191;25261;-66
2023/03/04 00:23:59;;;;;;;;;22.00;18.00;;;;;;;;117884;1177;25389;-66
2023/03/04 00:26:27;;;;;;;;;21.00;17.33;;;;;;;;117968;1177;25426;-67
2023/03/04 00:28:55;;;;;;;;;20.33;17.67;;;;;;;;117929;1180;25750;-66
2023/03/04 00:31:24;;;;;;;;;23.50;19.00;;;;;;;;117914;1183;24688;-66
2023/03/04 00:33:52;;;;;;;;;23.33;19.67;;;;;;;;117962;1177;25626;-67
2023/03/04 00:36:21;;;;;;;;;19.50;15.00;;;;;;;;117939;1179;25229;-67
2023/03/04 00:38:49;;;;;;;;;19.00;18.50;;;;;;;;118002;1180;24769;-67
2023/03/04 00:41:17;;;;;;;;;20.00;18.00;;;;;;;;117947;1183;25160;-68
2023/03/04 00:43:46;;;;;;;;;23.67;19.00;;;;;;;;117921;1177;26040;-68
2023/03/04 00:46:14;;;;;;;;;18.33;16.00;;;;;;;;117901;1177;25688;-67
2023/03/04 00:48:43;;;;;;;;;21.00;20.00;;;;;;;;117876;1191;25714;-69
2023/03/04 00:51:11;;;;;;;;;24.33;18.00;;;;;;;;117900;1188;24752;-70
2023/03/04 00:53:40;;;;;;;;;20.50;19.00;;;;;;;;117928;1180;25426;-70
2023/03/04 00:56:08;;;;;;;;;21.50;18.50;;;;;;;;117900;1178;25309;-66
2023/03/04 00:58:38;;;;;;;;;21.00;19.00;;;;;;;;117895;1191;25268;-68
2023/03/04 01:01:06;;;;;;;;;22.33;21.00;;;;;;;;117939;1188;24942;-68
2023/03/04 01:03:35;;;;;;;;;23.33;17.67;;;;;;;;117911;1179;24799;-67
2023/03/04 01:06:04;;;;;;;;;17.00;17.00;;;;;;;;117930;1182;24750;-71
2023/03/04 01:08:33;;;;;;;;;22.33;20.00;;;;;;;;117919;1177;24957;-66
2023/03/04 01:11:02;;;;;;;;;23.50;18.00;;;;;;;;117924;1177;25374;-66
2023/03/04 01:13:30;;;;;;;;;19.00;18.00;;;;;;;;117968;1177;24695;-66
2023/03/04 01:15:59;;;;;;;;;31.33;24.00;;;;;;;;117913;1191;24929;-70
2023/03/04 01:18:27;;;;;;;;;24.00;18.67;;;;;;;;117894;1188;25720;-66
2023/03/04 01:20:56;;;;;;;;;23.50;21.00;;;;;;;;117940;1177;24731;-66
2023/03/04 01:23:24;;;;;;;;;18.00;17.00;;;;;;;;117889;1181;25159;-68
2023/03/04 01:25:53;;;;;;;;;23.00;17.33;;;;;;;;117887;1184;24762;-67
2023/03/04 01:28:21;;;;;;;;;25.00;21.00;;;;;;;;117887;1178;24677;-67
2023/03/04 01:30:49;;;;;;;;;25.00;21.00;;;;;;;;117871;1191;25220;-66
2023/03/04 01:33:18;;;;;;;;;22.00;20.00;;;;;;;;117953;1191;24726;-66
2023/03/04 01:35:47;;;;;;;;;20.00;18.00;;;;;;;;117927;1190;24848;-67
2023/03/04 01:38:15;;;;;;;;;22.00;18.50;;;;;;;;117920;1191;25009;-67
2023/03/04 01:40:44;;;;;;;;;27.50;22.50;;;;;;;;117896;1177;25075;-68
2023/03/04 01:43:18;;;;;;;;;20.00;19.00;;;;;;;;117820;1179;25069;-68
2023/03/04 01:45:48;;;;;;;;;26.00;21.00;;;;;;;;117902;1177;24871;-66
2023/03/04 01:48:21;;;;;;;;;23.33;22.00;;;;;;;;117897;1177;25492;-69
2023/03/04 01:50:50;;;;;;;;;19.00;17.33;;;;;;;;117928;1191;24816;-66
2023/03/04 01:53:24;;;;;;;;;20.50;20.50;;;;;;;;117958;1179;26094;-67
2023/03/04 01:55:54;;;;;;;;;24.33;19.00;;;;;;;;117931;1177;24695;-66
2023/03/04 01:58:30;;;;;;;;;29.00;22.00;;;;;;;;117947;1179;25052;-66
2023/03/04 02:00:59;;;;;;;;;24.00;21.00;;;;;;;;117965;1191;25262;-67
2023/03/04 02:03:28;;;;;;;;;24.50;21.50;;;;;;;;117924;1178;25301;-66
2023/03/04 02:05:56;;;;;;;;;23.67;18.33;;;;;;;;117983;1182;25241;-66
2023/03/04 02:08:24;;;;;;;;;18.00;17.50;;;;;;;;117913;1185;24902;-67
2023/03/04 02:10:53;;;;;;;;;19.00;17.00;;;;;;;;117921;1177;25352;-67
2023/03/04 02:13:22;;;;;;;;;21.00;17.00;;;;;;;;117972;1191;24970;-67
2023/03/04 02:15:50;;;;;;;;;19.00;18.00;;;;;;;;117967;1177;25198;-66
2023/03/04 02:18:22;;;;;;;;;24.50;20.50;;;;;;;;117956;1187;24918;-66
2023/03/04 02:21:16;;;;;;;;;23.50;20.50;;;;;;;;117937;1191;25412;-66
2023/03/04 02:23:59;;;;;;;;;19.50;17.50;;;;;;;;117949;1184;25124;-66
2023/03/04 02:26:32;;;;;;;;;27.00;20.50;;;;;;;;117952;1178;24883;-66
2023/03/04 02:29:02;;;;;;;;;25.50;20.50;;;;;;;;117964;1177;24904;-66
2023/03/04 02:31:36;;;;;;;;;24.00;21.00;;;;;;;;117980;1191;25020;-65
2023/03/04 02:34:20;;;;;;;;;22.00;19.00;;;;;;;;117921;1177;25576;-67
2023/03/04 02:36:51;;;;;;;;;19.50;16.00;;;;;;;;117948;1183;25338;-67
2023/03/04 02:39:20;;;;;;;;;26.67;21.33;;;;;;;;117934;1180;24859;-65
2023/03/04 02:41:51;;;;;;;;;19.67;19.67;;;;;;;;117950;1180;24984;-66
2023/03/04 02:44:28;;;;;;;;;20.50;18.00;;;;;;;;117929;1191;24855;-65
2023/03/04 02:46:58;;;;;;;;;19.67;15.00;;;;;;;;117883;1177;25408;-71
2023/03/04 02:49:28;;;;;;;;;21.33;18.00;;;;;;;;117869;1190;25616;-71
2023/03/04 02:52:07;;;;;;;;;26.00;18.00;;;;;;;;117850;1190;24693;-69
2023/03/04 02:54:36;;;;;;;;;19.00;17.50;;;;;;;;117868;1180;25203;-67
2023/03/04 02:57:08;;;;;;;;;22.00;19.00;;;;;;;;117966;1178;25124;-67
2023/03/04 02:59:37;;;;;;;;;20.00;19.00;;;;;;;;117939;1177;25427;-65
2023/03/04 03:02:07;;;;;;;;;26.00;20.00;;;;;;;;117877;1191;25568;-67
2023/03/04 03:04:37;;;;;;;;;22.50;19.50;;;;;;;;117926;1191;26515;-67
2023/03/04 03:07:06;;;;;;;;;24.33;20.00;;;;;;;;117854;1183;25014;-68
2023/03/04 03:09:35;;;;;;;;;21.67;17.67;;;;;;;;117865;1178;24940;-67
2023/03/04 03:12:03;;;;;;;;;20.00;19.00;;;;;;;;117868;1177;24953;-65
2023/03/04 03:14:32;;;;;;;;;19.00;18.00;;;;;;;;117848;1177;25405;-65
2023/03/04 03:17:00;;;;;;;;;26.50;22.00;;;;;;;;117863;1177;25239;-71
2023/03/04 03:19:29;;;;;;;;;21.00;17.00;;;;;;;;117877;1177;24727;-69
2023/03/04 03:22:28;;;;;;;;;18.50;18.00;;;;;;;;117850;1191;25507;-68
2023/03/04 03:24:57;;;;;;;;;22.33;16.33;;;;;;;;117898;1190;25020;-66
2023/03/04 03:27:25;;;;;;;;;18.00;16.50;;;;;;;;117955;1177;25048;-67
2023/03/04 03:29:53;;;;;;;;;23.33;17.67;;;;;;;;117941;1181;25114;-66
2023/03/04 03:32:22;;;;;;;;;21.67;19.67;;;;;;;;117986;1191;25247;-66
2023/03/04 03:34:50;;;;;;;;;20.00;17.00;;;;;;;;117906;1191;25259;-66
2023/03/04 03:37:19;;;;;;;;;21.00;12.00;;;;;;;;117918;1177;25701;-66
2023/03/04 03:39:47;;;;;;;;;23.33;21.67;;;;;;;;117958;1191;24949;-68
2023/03/04 03:42:16;;;;;;;;;21.00;19.33;;;;;;;;117886;1183;25127;-71
2023/03/04 03:44:44;;;;;;;;;19.50;16.00;;;;;;;;117878;1191;25052;-72
2023/03/04 03:47:12;;;;;;;;;21.67;17.00;;;;;;;;117844;1190;24974;-67
2023/03/04 03:49:41;;;;;;;;;19.50;17.00;;;;;;;;117878;1179;25757;-70
2023/03/04 03:52:10;;;;;;;;;22.00;17.50;;;;;;;;117940;1181;24996;-66
2023/03/04 03:54:38;;;;;;;;;22.00;20.00;;;;;;;;117965;1181;25130;-66
2023/03/04 03:57:06;;;;;;;;;18.33;16.00;;;;;;;;117946;1191;25023;-67
2023/03/04 03:59:35;;;;;;;;;17.67;15.00;;;;;;;;117916;1177;25555;-66
2023/03/04 04:02:03;;;;;;;;;22.50;18.50;;;;;;;;117825;1179;24998;-66
2023/03/04 04:04:32;;;;;;;;;23.33;20.00;;;;;;;;117861;1177;25459;-67
2023/03/04 04:07:01;;;;;;;;;21.67;17.00;;;;;;;;117957;1181;25123;-68
2023/03/04 04:09:29;;;;;;;;;16.00;15.00;;;;;;;;117864;1177;25187;-66
2023/03/04 04:11:57;;;;;;;;;24.00;19.00;;;;;;;;117906;1180;24839;-66
2023/03/04 04:14:26;;;;;;;;;25.50;20.00;;;;;;;;117934;1177;24790;-66
2023/03/04 04:16:54;;;;;;;;;19.33;17.00;;;;;;;;117898;1177;25514;-66
2023/03/04 04:19:23;;;;;;;;;24.67;20.00;;;;;;;;117895;1177;25378;-64
2023/03/04 04:21:51;;;;;;;;;23.67;17.67;;;;;;;;117853;1180;25671;-67
2023/03/04 04:24:20;;;;;;;;;20.67;17.33;;;;;;;;117837;1179;25073;-69
2023/03/04 04:26:48;;;;;;;;;19.00;17.00;;;;;;;;117896;1180;24940;-67
2023/03/04 04:29:17;;;;;;;;;21.00;17.00;;;;;;;;117929;1191;25223;-68
2023/03/04 04:31:45;;;;;;;;;18.50;18.00;;;;;;;;117910;1180;25470;-69
2023/03/04 04:34:14;;;;;;;;;21.00;16.00;;;;;;;;117852;1183;25171;-66
2023/03/04 04:36:42;;;;;;;;;20.00;17.00;;;;;;;;117944;1180;25161;-67
2023/03/04 04:39:11;;;;;;;;;18.00;13.67;;;;;;;;117934;1180;25401;-67
2023/03/04 04:41:41;;;;;;;;;20.50;18.00;;;;;;;;117886;1181;24879;-67
2023/03/04 04:44:10;;;;;;;;;20.50;19.00;;;;;;;;117949;1182;25327;-67
2023/03/04 04:46:39;;;;;;;;;15.00;15.00;;;;;;;;117958;1180;25155;-66
2023/03/04 04:49:08;;;;;;;;;21.33;18.00;;;;;;;;117961;1179;25132;-67
2023/03/04 04:51:38;;;;;;;;;19.50;17.50;;;;;;;;118016;1191;24877;-67
2023/03/04 04:54:06;;;;;;;;;17.00;14.00;;;;;;;;117981;1179;25293;-67
2023/03/04 04:56:35;;;;;;;;;18.00;18.00;;;;;;;;117986;1180;25290;-67
2023/03/04 04:59:04;;;;;;;;;20.00;17.00;;;;;;;;117860;1179;26249;-69
2023/03/04 05:01:33;;;;;;;;;15.00;13.00;;;;;;;;117861;1181;24842;-72
2023/03/04 05:04:02;;;;;;;;;21.00;20.33;;;;;;;;117906;1179;25370;-68
2023/03/04 05:06:30;;;;;;;;;19.00;17.00;;;;;;;;117937;1191;24815;-67
2023/03/04 05:08:59;;;;;;;;;18.00;17.00;;;;;;;;117959;1191;25416;-66
2023/03/04 05:11:27;;;;;;;;;14.33;14.33;;;;;;;;117914;1181;25221;-66
2023/03/04 05:13:56;;;;;;;;;17.50;16.00;;;;;;;;117949;1180;26006;-67
2023/03/04 05:16:24;;;;;;;;;21.67;17.33;;;;;;;;117933;1180;25633;-67
2023/03/04 05:18:52;;;;;;;;;23.00;19.00;;;;;;;;117910;1186;25209;-68
2023/03/04 05:21:21;;;;;;;;;25.50;15.50;;;;;;;;117904;1191;24866;-67
2023/03/04 05:23:49;;;;;;;;;20.33;16.00;;;;;;;;117986;1180;25674;-66
2023/03/04 05:26:18;;;;;;;;;19.50;18.50;;;;;;;;117984;1187;24794;-67
2023/03/04 05:28:46;;;;;;;;;21.00;19.33;;;;;;;;118147;1178;25238;-67
2023/03/04 05:31:16;;;;;;;;;20.00;18.50;;;;;;;;118165;1177;24736;-67
2023/03/04 05:33:45;;;;;;;;;21.50;17.00;;;;;;;;118115;1177;25489;-66
2023/03/04 05:36:13;;;;;;;;;14.00;13.00;;;;;;;;117992;1177;25705;-66
2023/03/04 05:38:41;;;;;;;;;22.00;15.00;;;;;;;;118139;1184;25585;-66
2023/03/04 05:41:10;;;;;;;;;12.67;11.00;;;;;;;;118125;1177;25527;-66
2023/03/04 05:43:41;;;;;;;;;22.00;18.00;;;;;;;;118101;1190;25142;-66
2023/03/04 05:46:14;;;;;;;;;20.50;17.50;;;;;;;;118125;1178;24889;-66
2023/03/04 05:48:43;;;;;;;;;12.67;11.00;;;;;;;;117945;1179;25084;-66
2023/03/04 05:51:11;;;;;;;;;18.00;17.50;;;;;;;;118138;1190;25117;-66
2023/03/04 05:53:40;;;;;;;;;20.50;15.50;;;;;;;;118086;1177;25630;-66
2023/03/04 05:56:11;;;;;;;;;18.00;15.00;;;;;;;;118104;1187;24868;-66
2023/03/04 05:58:39;;;;;;;;;22.00;17.33;;;;;;;;118114;1177;25001;-69
2023/03/04 06:01:09;;;;;;;;;16.00;14.00;;;;;;;;117961;1190;24750;-67
2023/03/04 06:03:37;;;;;;;;;18.00;17.33;;;;;;;;117958;1181;25453;-66
2023/03/04 06:06:05;;;;;;;;;18.33;17.33;;;;;;;;118124;1190;24865;-67
2023/03/04 06:08:34;;;;;;;;;15.50;15.50;;;;;;;;118091;1187;24949;-66
2023/03/04 06:11:04;;;;;;;;;21.67;17.00;;;;;;;;117980;1179;25770;-66
2023/03/04 06:13:33;;;;;;;;;19.67;16.33;;;;;;;;117945;1180;24953;-65
2023/03/04 06:16:02;;;;;;;;;20.00;16.00;;;;;;;;118074;1177;25528;-67
2023/03/04 06:18:31;;;;;;;;;26.00;17.00;;;;;;;;118056;1177;25648;-65
2023/03/04 06:21:01;;;;;;;;;18.00;18.00;;;;;;;;118061;1177;25601;-66
2023/03/04 06:23:30;;;;;;;;;18.67;16.67;;;;;;;;118093;1186;25361;-66
2023/03/04 06:26:00;;;;;;;;;19.00;16.00;;;;;;;;118142;1177;24806;-67
2023/03/04 06:28:28;;;;;;;;;22.00;18.00;;;;;;;;117921;1180;24974;-68
2023/03/04 06:30:57;;;;;;;;;17.50;17.00;;;;;;;;117949;1190;24878;-70
2023/03/04 06:33:25;;;;;;;;;17.00;17.00;;;;;;;;118120;1178;25704;-65
2023/03/04 06:35:55;;;;;;;;;17.00;15.00;;;;;;;;117934;1181;25418;-66
2023/03/04 06:38:25;;;;;;;;;25.00;18.50;;;;;;;;117946;1181;25482;-67
2023/03/04 06:40:54;;;;;;;;;12.00;11.50;;;;;;;;117906;1182;25616;-65
2023/03/04 06:43:24;;;;;;;;;14.00;13.00;;;;;;;;117983;1183;25231;-68
2023/03/04 06:45:53;;;;;;;;;17.00;17.00;;;;;;;;118067;1177;25310;-66
2023/03/04 06:48:21;;;;;;;;;15.33;15.00;;;;;;;;118020;1184;24962;-69
2023/03/04 06:50:50;;;;;;;;;17.33;14.33;;;;;;;;118031;1177;25266;-66
2023/03/04 06:53:18;;;;;;;;;19.67;18.00;;;;;;;;118019;1179;25115;-67
2023/03/04 06:55:48;;;;;;;;;19.50;15.50;;;;;;;;118033;1178;24964;-68
2023/03/04 06:58:16;;;;;;;;;21.67;18.00;;;;;;;;117930;1180;24785;-67
2023/03/04 07:00:45;;;;;;;;;19.00;16.00;;;;;;;;118059;1177;25656;-66
2023/03/04 07:03:14;;;;;;;;;19.00;17.00;;;;;;;;117816;1181;25574;-65
2023/03/04 07:05:42;;;;;;;;;18.00;18.00;;;;;;;;117822;1177;25145;-65
2023/03/04 07:08:11;;;;;;;;;18.50;15.50;;;;;;;;117918;1177;25683;-66
2023/03/04 07:10:40;;;;;;;;;17.00;11.67;;;;;;;;117913;1177;25804;-65
2023/03/04 07:13:08;;;;;;;;;14.00;14.00;;;;;;;;118045;1190;24964;-67
2023/03/04 07:15:36;;;;;;;;;20.67;16.33;;;;;;;;118092;1190;25580;-66
2023/03/04 07:18:05;;;;;;;;;20.00;15.00;;;;;;;;118030;1178;25007;-66
2023/03/04 07:20:33;;;;;;;;;21.67;15.33;;;;;;;;118048;1177;24950;-65
2023/03/04 07:23:02;;;;;;;;;20.00;15.00;;;;;;;;117869;1190;26271;-67
2023/03/04 07:25:30;;;;;;;;;21.33;15.00;;;;;;;;117880;1183;25585;-67
2023/03/04 07:27:59;;;;;;;;;16.67;15.00;;;;;;;;117928;1190;25508;-65
2023/03/04 07:30:27;;;;;;;;;19.00;18.00;;;;;;;;117857;1177;25589;-66
2023/03/04 07:32:57;;;;;;;;;19.67;16.00;;;;;;;;118039;1177;25409;-66
2023/03/04 07:35:26;;;;;;;;;19.00;17.67;;;;;;;;117900;1184;25027;-65
2023/03/04 07:37:54;;;;;;;;;17.50;15.00;;;;;;;;117935;1180;24741;-66
2023/03/04 07:40:23;;;;;;;;;19.00;16.00;;;;;;;;118050;1177;24754;-65
2023/03/04 07:42:53;;;;;;;;;17.00;16.00;;;;;;;;117903;1181;25267;-65
2023/03/04 07:45:23;;;;;;;;;16.00;15.50;;;;;;;;118051;1183;25161;-65
2023/03/04 07:47:52;;;;;;;;;18.33;15.33;;;;;;;;118053;1178;25080;-65
2023/03/04 07:50:21;;;;;;;;;14.50;12.50;;;;;;;;118026;1190;25550;-64
2023/03/04 07:52:52;;;;;;;;;19.00;15.33;;;;;;;;118016;1190;25639;-67
2023/03/04 07:55:21;;;;;;;;;16.00;14.67;;;;;;;;117917;1187;25505;-65
2023/03/04 07:57:49;;;;;;;;;17.00;15.00;;;;;;;;117905;1179;25064;-66
2023/03/04 08:00:18;;;;;;;;;12.00;9.00;;;;;;;;117996;1189;25335;-65
2023/03/04 08:02:47;;;;;;;;;22.00;17.00;;;;;;;;117884;1180;24715;-66
2023/03/04 08:05:15;;;;;;;;;21.50;18.50;;;;;;;;117861;1180;25050;-66
2023/03/04 08:07:44;;;;;;;;;15.33;10.00;;;;;;;;118011;1190;25358;-66
2023/03/04 08:10:12;;;;;;;;;17.00;16.50;;;;;;;;118057;1177;25187;-66
2023/03/04 08:12:41;;;;;;;;;21.00;17.00;;;;;;;;118029;1177;25003;-65
2023/03/04 08:15:10;;;;;;;;;20.00;15.00;;;;;;;;117909;1187;25749;-66
2023/03/04 08:17:39;;;;;;;;;17.50;15.00;;;;;;;;118075;1187;25065;-66
2023/03/04 08:20:08;;;;;;;;;18.00;15.50;;;;;;;;117905;1180;25517;-66
2023/03/04 08:22:36;;;;;;;;;22.00;16.67;;;;;;;;117897;1187;25001;-66
2023/03/04 08:25:05;;;;;;;;;20.00;15.67;;;;;;;;117877;1190;25138;-68
2023/03/04 08:27:34;;;;;;;;;18.50;15.00;;;;;;;;118082;1190;25307;-66
2023/03/04 08:30:04;;;;;;;;;19.00;15.33;;;;;;;;118034;1177;25606;-65
2023/03/04 08:32:32;;;;;;;;;13.33;11.00;;;;;;;;117998;1177;24969;-65
2023/03/04 08:35:01;;;;;;;;;17.00;15.00;;;;;;;;117910;1184;25171;-67
2023/03/04 08:37:31;;;;;;;;;13.33;10.00;;;;;;;;118045;1177;24947;-65
2023/03/04 08:39:59;;;;;;;;;10.67;10.67;;;;;;;;118108;1178;25279;-66
2023/03/04 08:42:27;;;;;;;;;19.33;16.67;;;;;;;;118172;1177;25388;-66
2023/03/04 08:44:56;;;;;;;;;11.67;11.67;;;;;;;;118153;1177;25462;-65
2023/03/04 08:47:24;;;;;;;;;19.67;17.00;;;;;;;;118125;1177;24949;-66
2023/03/04 08:49:53;;;;;;;;;17.33;17.33;;;;;;;;118162;1190;25448;-65
2023/03/04 08:52:21;;;;;;;;;16.33;13.67;;;;;;;;118099;1177;25680;-66
2023/03/04 08:54:50;;;;;;;;;19.00;16.00;;;;;;;;118139;1181;25040;-66
2023/03/04 08:57:18;;;;;;;;;18.00;13.50;;;;;;;;118135;1177;25262;-65
2023/03/04 08:59:47;;;;;;;;;19.00;16.50;;;;;;;;118173;1189;25377;-66
2023/03/04 09:02:15;;;;;;;;;18.00;13.00;;;;;;;;117897;1180;24795;-66
2023/03/04 09:04:44;;;;;;;;;16.33;14.33;;;;;;;;118115;1178;25500;-65
2023/03/04 09:07:13;;;;;;;;;11.50;11.50;;;;;;;;117962;1181;24896;-66
2023/03/04 09:09:41;;;;;;;;;18.50;16.00;;;;;;;;118103;1178;25114;-65
2023/03/04 09:12:10;;;;;;;;;14.33;13.67;;;;;;;;118132;1177;25012;-65
2023/03/04 09:14:38;;;;;;;;;16.00;14.50;;;;;;;;118125;1177;25447;-66
2023/03/04 09:17:08;;;;;;;;;22.00;17.00;;;;;;;;118083;1177;25619;-66
2023/03/04 09:19:37;;;;;;;;;18.67;15.33;;;;;;;;118117;1177;25683;-65
2023/03/04 09:22:06;;;;;;;;;14.00;13.00;;;;;;;;118134;1177;25204;-66
2023/03/04 09:24:34;;;;;;;;;19.00;15.00;;;;;;;;117934;1190;26150;-65
2023/03/04 09:27:03;;;;;;;;;22.00;16.00;;;;;;;;118154;1189;24924;-65
2023/03/04 09:29:32;;;;;;;;;8.50;8.00;;;;;;;;118130;1177;25010;-65
2023/03/04 09:32:00;;;;;;;;;20.50;11.50;;;;;;;;118112;1177;25593;-65
2023/03/04 09:34:29;;;;;;;;;16.33;16.00;;;;;;;;117944;1178;25760;-66
2023/03/04 09:36:57;;;;;;;;;14.00;14.00;;;;;;;;117903;1183;25944;-66
2023/03/04 09:39:26;;;;;;;;;13.50;12.50;;;;;;;;118139;1183;25192;-67
2023/03/04 09:41:57;;;;;;;;;14.00;12.00;;;;;;;;118116;1183;24770;-66
2023/03/04 09:44:45;;;;;;;;;14.00;11.00;;;;;;;;117893;1180;24890;-65
2023/03/04 09:47:16;;;;;;;;;18.00;15.00;;;;;;;;117915;1180;25094;-65
2023/03/04 09:49:51;;;;;;;;;16.00;14.00;;;;;;;;117913;1190;25090;-67
2023/03/04 09:53:01;;;;;;;;;13.00;9.00;;;;;;;;117920;1190;25440;-65
2023/03/04 09:55:42;;;;;;;;;18.00;14.33;;;;;;;;118138;1177;25146;-67
2023/03/04 09:58:19;;;;;;;;;13.00;12.33;;;;;;;;117934;1180;25185;-65
2023/03/04 10:01:08;;;;;;;;;18.50;14.50;;;;;;;;118125;1177;24876;-65
2023/03/04 10:03:49;;;;;;;;;17.00;14.00;;;;;;;;118101;1186;25424;-65
2023/03/04 10:06:19;;;;;;;;;22.33;16.33;;;;;;;;118030;1182;24968;-64
2023/03/04 10:08:51;;;;;;;;;12.00;12.00;;;;;;;;118074;1177;25699;-66
2023/03/04 10:11:23;;;;;;;;;23.00;17.00;;;;;;;;118133;1177;25194;-65
2023/03/04 10:14:02;;;;;;;;;13.00;11.00;;;;;;;;118096;1190;25195;-67
2023/03/04 10:16:40;;;;;;;;;19.00;16.00;;;;;;;;118101;1183;24735;-68
2023/03/04 10:19:23;;;;;;;;;18.50;14.00;;;;;;;;118145;1177;25212;-65
2023/03/04 10:21:52;;;;;;;;;16.00;12.67;;;;;;;;118091;1177;25386;-65
2023/03/04 10:24:24;;;;;;;;;17.00;15.00;;;;;;;;117992;1180;25342;-66
2023/03/04 10:26:56;;;;;;;;;17.25;13.75;;;;;;;;118093;1182;24818;-65
2023/03/04 10:29:25;;;;;;;;;13.50;9.50;;;;;;;;118091;1178;24850;-67
2023/03/04 10:31:55;;;;;;;;;15.50;14.00;;;;;;;;118108;1178;25332;-64
2023/03/04 10:34:23;;;;;;;;;16.00;14.00;;;;;;;;118087;1177;25369;-66
2023/03/04 10:36:57;;;;;;;;;15.67;15.00;;;;;;;;118099;1177;26294;-65
2023/03/04 10:39:36;;;;;;;;;15.67;14.33;;;;;;;;118065;1177;25570;-66
2023/03/04 10:42:21;;;;;;;;;16.50;14.00;;;;;;;;118084;1177;25145;-66
2023/03/04 10:44:55;;;;;;;;;15.00;14.00;;;;;;;;117970;1180;25108;-66
2023/03/04 10:47:26;;;;;;;;;18.00;14.00;;;;;;;;118072;1183;25340;-65
2023/03/04 10:57:33;;;;;;;;;15.33;13.33;;;;;;;;116353;1195;23147;-66
2023/03/04 11:00:23;;;;;;;;;19.67;14.67;;;;;;;;117419;1182;25790;-66
2023/03/04 11:02:51;;;;;;;;;17.50;14.75;;;;;;;;117423;1183;25638;-64
2023/03/04 11:05:22;;;;;;;;;18.33;14.33;;;;;;;;117452;1187;25045;-63
2023/03/04 11:07:55;;;;;;;;;14.33;13.67;;;;;;;;117453;1183;24902;-64
2023/03/04 11:10:39;;;;;;;;;19.00;15.33;;;;;;;;117786;1192;25018;-66
2023/03/04 11:13:10;;;;;;;;;17.00;14.33;;;;;;;;117823;1192;25152;-66
2023/03/04 11:15:55;;;;;;;;;17.50;13.00;;;;;;;;117850;1180;25046;-65
2023/03/04 11:18:42;;;;;;;;;11.00;9.33;;;;;;;;117865;1180;25454;-65
2023/03/04 11:21:25;;;;;;;;;14.33;14.00;;;;;;;;117922;1191;25548;-65
2023/03/04 11:24:03;;;;;;;;;13.00;12.67;;;;;;;;117898;1181;25105;-65
2023/03/04 11:26:39;;;;;;;;;13.33;13.33;;;;;;;;117787;1180;24917;-66
2023/03/04 11:29:15;;;;;;;;;20.00;15.67;;;;;;;;117854;1193;25228;-65
2023/03/04 11:31:51;;;;;;;;;14.00;12.33;;;;;;;;117476;1180;25801;-66
2023/03/04 11:34:26;;;;;;;;;16.33;13.67;;;;;;;;117774;1179;25344;-68
2023/03/04 11:37:05;;;;;;;;;14.75;12.00;;;;;;;;117844;1193;25267;-65
2023/03/04 11:39:45;;;;;;;;;19.25;17.00;;;;;;;;117791;1183;24832;-65
2023/03/04 11:42:28;;;;;;;;;17.00;14.33;;;;;;;;117746;1180;25145;-65
2023/03/04 11:44:56;;;;;;;;;18.67;15.00;;;;;;;;117450;1193;25039;-66
2023/03/04 11:47:37;;;;;;;;;11.00;10.50;;;;;;;;117477;1193;25133;-65
2023/03/04 11:50:30;;;;;;;;;11.50;10.75;;;;;;;;117851;1179;25392;-66
2023/03/04 11:53:36;;;;;;;;;20.00;16.00;;;;;;;;117802;1185;24941;-65
2023/03/04 11:56:26;;;;;;;;;16.00;13.50;;;;;;;;117776;1180;25075;-65
2023/03/04 11:59:13;;;;;;;;;15.67;14.00;;;;;;;;117456;1193;25224;-65
2023/03/04 12:01:53;;;;;;;;;15.00;13.67;;;;;;;;117815;1190;25603;-65
2023/03/04 12:05:07;;;;;;;;;12.00;9.00;;;;;;;;117831;1180;24975;-65
2023/03/04 12:07:50;;;;;;;;;14.00;12.67;;;;;;;;117113;1186;24901;-65
2023/03/04 12:10:27;;;;;;;;;16.67;14.33;;;;;;;;117107;1187;25295;-65
2023/03/04 12:13:29;;;;;;;;;19.00;15.00;;;;;;;;117572;1188;25508;-66
2023/03/04 12:16:18;;;;;;;;;14.00;14.00;;;;;;;;117479;1184;24803;-65
2023/03/04 12:19:10;;;;;;;;;11.00;11.00;;;;;;;;117763;1193;25515;-65
2023/03/04 12:21:57;;;;;;;;;17.00;17.00;;;;;;;;117565;1180;25415;-64
2023/03/04 12:24:45;;;;;;;;;12.00;11.67;;;;;;;;117712;1179;24971;-65
2023/03/04 12:27:13;;;;;;;;;14.50;10.50;;;;;;;;117770;1186;25508;-65
2023/03/04 12:29:52;;;;;;;;;16.50;15.25;;;;;;;;117788;1181;24961;-65
2023/03/04 12:32:30;;;;;;;;;16.33;15.00;;;;;;;;117814;1179;25589;-66
2023/03/04 12:35:39;;;;;;;;;18.33;16.67;;;;;;;;117772;1179;25732;-65
2023/03/04 12:38:34;;;;;;;;;16.50;13.00;;;;;;;;117784;1181;25223;-65
2023/03/04 12:41:22;;;;;;;;;14.67;8.67;;;;;;;;117629;1193;25468;-64
2023/03/04 12:43:56;;;;;;;;;15.67;11.00;;;;;;;;117818;1188;25404;-65
2023/03/04 12:46:34;;;;;;;;;14.00;14.00;;;;;;;;117840;1181;25386;-65
2023/03/04 12:49:15;;;;;;;;;17.33;12.00;;;;;;;;117807;1186;25578;-65
2023/03/04 12:52:11;;;;;;;;;16.50;15.00;;;;;;;;117800;1181;26014;-65
2023/03/04 12:54:44;;;;;;;;;11.00;8.67;;;;;;;;117807;1193;25572;-65
2023/03/04 12:57:30;;;;;;;;;15.50;13.50;;;;;;;;117463;1180;24806;-65
2023/03/04 13:00:20;;;;;;;;;19.50;17.00;;;;;;;;117500;1193;24750;-65
2023/03/04 13:03:07;;;;;;;;;16.33;13.67;;;;;;;;117821;1193;25649;-65
2023/03/04 13:05:39;;;;;;;;;14.33;12.67;;;;;;;;117798;1179;25982;-65
2023/03/04 13:08:10;;;;;;;;;16.00;16.00;;;;;;;;117789;1179;25841;-66
2023/03/04 13:10:38;;;;;;;;;10.50;10.00;;;;;;;;117939;1191;25479;-65
2023/03/04 13:13:34;;;;;;;;;14.33;12.67;;;;;;;;117868;1177;24708;-65
2023/03/04 13:16:10;;;;;;;;;16.00;14.33;;;;;;;;117868;1179;25473;-64
2023/03/04 13:18:39;;;;;;;;;12.00;12.00;;;;;;;;117932;1177;24961;-65
2023/03/04 13:21:10;;;;;;;;;17.00;14.00;;;;;;;;117874;1180;24985;-65
2023/03/04 13:23:39;;;;;;;;;14.67;13.67;;;;;;;;117876;1191;25094;-66
2023/03/04 13:26:16;;;;;;;;;14.50;12.50;;;;;;;;117881;1179;25452;-67
2023/03/04 13:28:44;;;;;;;;;12.00;11.00;;;;;;;;117918;1178;25134;-64
2023/03/04 13:31:16;;;;;;;;;14.00;10.67;;;;;;;;117810;1191;25098;-65
2023/03/04 13:33:48;;;;;;;;;18.33;14.00;;;;;;;;117835;1191;24773;-64
2023/03/04 13:36:54;;;;;;;;;12.50;11.50;;;;;;;;117904;1177;25704;-66
2023/03/04 13:39:26;;;;;;;;;16.50;16.00;;;;;;;;117835;1186;25383;-65
2023/03/04 13:41:58;;;;;;;;;12.00;11.00;;;;;;;;117897;1191;24772;-66
2023/03/04 13:44:34;;;;;;;;;14.00;11.33;;;;;;;;117844;1191;25335;-67
2023/03/04 13:47:15;;;;;;;;;15.67;10.67;;;;;;;;117895;1177;25408;-65
2023/03/04 13:49:43;;;;;;;;;13.75;13.75;;;;;;;;117947;1191;25676;-64
2023/03/04 13:52:34;;;;;;;;;17.33;16.67;;;;;;;;117880;1191;25309;-64
2023/03/04 13:55:37;;;;;;;;;17.00;17.00;;;;;;;;117921;1191;25653;-63
2023/03/04 13:58:18;;;;;;;;;11.33;11.33;;;;;;;;117900;1178;25202;-64
2023/03/04 14:00:48;;;;;;;;;12.00;10.50;;;;;;;;117839;1177;25684;-68
2023/03/04 14:03:23;;;;;;;;;14.00;10.50;;;;;;;;117882;1177;24982;-65
2023/03/04 14:06:16;;;;;;;;;12.33;11.67;;;;;;;;117872;1187;24785;-69
2023/03/04 14:08:46;;;;;;;;;13.50;11.50;;;;;;;;117892;1191;25528;-65
2023/03/04 14:11:23;;;;;;;;;14.50;12.75;;;;;;;;117923;1177;25404;-65
2023/03/04 14:13:52;;;;;;;;;16.33;11.67;;;;;;;;117876;1191;25422;-65
2023/03/04 14:16:22;;;;;;;;;11.33;11.00;;;;;;;;117889;1177;25079;-64
2023/03/04 14:19:05;;;;;;;;;11.00;9.33;;;;;;;;117890;1186;26007;-64
2023/03/04 14:21:35;;;;;;;;;16.00;15.50;;;;;;;;117839;1177;25081;-65
2023/03/04 14:24:07;;;;;;;;;18.25;15.00;;;;;;;;117832;1179;25535;-67
2023/03/04 14:26:36;;;;;;;;;18.00;13.00;;;;;;;;117924;1177;25723;-65
2023/03/04 14:29:25;;;;;;;;;14.00;12.00;;;;;;;;117900;1177;24706;-65
2023/03/04 14:31:54;;;;;;;;;18.50;15.50;;;;;;;;117914;1177;25098;-65
2023/03/04 14:34:40;;;;;;;;;14.67;12.33;;;;;;;;117925;1185;25072;-65
2023/03/04 14:37:24;;;;;;;;;18.00;16.00;;;;;;;;117864;1177;25254;-66
2023/03/04 14:39:56;;;;;;;;;8.50;8.00;;;;;;;;117878;1190;25138;-66
2023/03/04 14:42:35;;;;;;;;;15.00;13.00;;;;;;;;117917;1190;25540;-65